createdAt,value
2024-01-17T00:00:50.323Z,11.342281879194632
2024-01-17T00:04:10.777Z,8.449664429530202
2024-01-17T00:07:30.642Z,6.758389261744966
2024-01-17T00:10:50.821Z,6.248322147651007
2024-01-17T00:15:49.858Z,11.429530201342281
2024-01-17T00:19:10.844Z,10.926174496644295
2024-01-17T00:24:22.043Z,10.093959731543624
2024-01-17T00:27:42.497Z,8.261744966442953
2024-01-17T00:31:55.054Z,6.818791946308725
2024-01-17T00:39:47.527Z,7.510067114093959
2024-01-17T00:43:08.326Z,10.335570469798657
2024-01-17T00:46:28.281Z,11.671140939597315
2024-01-17T00:49:48.601Z,9.684563758389261
2024-01-17T00:53:09.310Z,9.013422818791947
2024-01-17T00:56:29.594Z,8.691275167785236
2024-01-17T00:59:49.871Z,10.503355704697986
2024-01-17T01:03:32.557Z,11.651006711409396
2024-01-17T01:06:52.487Z,10.718120805369127
2024-01-17T01:10:12.893Z,12.523489932885907
2024-01-17T01:13:32.715Z,11.187919463087248
2024-01-17T01:16:53.296Z,12.073825503355705
2024-01-17T01:20:13.670Z,11.281879194630873
2024-01-17T01:23:33.893Z,10.442953020134228
2024-01-17T01:26:53.621Z,12.89261744966443
2024-01-17T01:33:05.020Z,7.677852348993288
2024-01-17T01:36:25.061Z,10.134228187919463
2024-01-17T01:42:05.669Z,9.51006711409396
2024-01-17T01:45:25.661Z,11.583892617449665
2024-01-17T01:48:46.384Z,10.78523489932886
2024-01-17T01:52:06.735Z,9.791946308724832
2024-01-17T01:55:26.701Z,9.06711409395973
2024-01-17T01:58:46.958Z,10.664429530201343
2024-01-17T02:06:54.285Z,11.134228187919463
2024-01-17T02:12:55.410Z,9.194630872483222
2024-01-17T02:16:16.279Z,10.12751677852349
2024-01-17T02:20:33.817Z,10.758389261744966
2024-01-17T02:23:54.336Z,10.100671140939598
2024-01-17T02:27:15.221Z,10.302013422818792
2024-01-17T02:30:35.828Z,7.791946308724833
2024-01-17T02:33:56.492Z,13.10738255033557
2024-01-17T02:37:17.031Z,10.496644295302014
2024-01-17T02:40:36.998Z,10.832214765100671
2024-01-17T02:43:56.571Z,10.711409395973154
2024-01-17T02:47:17.216Z,9.838926174496644
2024-01-17T02:50:37.206Z,9.724832214765101
2024-01-17T02:53:57.680Z,12.241610738255034
2024-01-17T02:57:18.207Z,10.355704697986576
2024-01-17T03:00:37.802Z,13.919463087248323
2024-01-17T03:06:12.560Z,10.610738255033556
2024-01-17T03:09:32.613Z,11.06711409395973
2024-01-17T03:12:52.373Z,13.53020134228188
2024-01-17T03:20:03.449Z,14.85234899328859
2024-01-17T03:23:23.498Z,12.456375838926174
2024-01-17T03:26:43.531Z,9.228187919463087
2024-01-17T03:30:04.628Z,11.033557046979865
2024-01-17T03:33:36.397Z,14.093959731543624
2024-01-17T03:36:56.872Z,11.973154362416107
2024-01-17T03:40:18.057Z,11.704697986577182
2024-01-17T03:43:38.030Z,6.993288590604027
2024-01-17T03:46:58.974Z,9.563758389261745
2024-01-17T03:50:19.049Z,8.369127516778523
2024-01-17T03:56:29.928Z,11.51006711409396
2024-01-17T03:59:49.957Z,9.691275167785236
2024-01-17T04:03:11.572Z,9.53020134228188
2024-01-17T04:09:36.764Z,11.557046979865772
2024-01-17T04:16:48.207Z,9.624161073825503
2024-01-17T04:20:08.667Z,9.671140939597315
2024-01-17T04:23:28.707Z,8.456375838926174
2024-01-17T04:26:49.057Z,8.194630872483222
2024-01-17T04:30:09.796Z,8.523489932885907
2024-01-17T04:33:30.044Z,7.97986577181208
2024-01-17T04:36:50.418Z,8.731543624161073
2024-01-17T04:40:11.075Z,10.302013422818792
2024-01-17T04:43:31.133Z,7.852348993288591
2024-01-17T04:46:50.985Z,8.181208053691275
2024-01-17T04:50:11.336Z,9.38255033557047
2024-01-17T04:53:32.242Z,7.912751677852349
2024-01-17T04:56:52.788Z,10.21476510067114
2024-01-17T05:00:15.443Z,8.10738255033557
2024-01-17T05:03:35.671Z,7.845637583892618
2024-01-17T05:09:06.944Z,11.248322147651006
2024-01-17T05:17:38.736Z,6.906040268456376
2024-01-17T05:20:58.499Z,7.7114093959731544
2024-01-17T05:24:18.362Z,8.342281879194632
2024-01-17T05:27:37.798Z,10.046979865771812
2024-01-17T05:30:58.351Z,5.167785234899329
2024-01-17T05:34:19.429Z,9.100671140939598
2024-01-17T05:37:39.453Z,8.610738255033556
2024-01-17T05:41:00.415Z,5.402684563758389
2024-01-17T05:44:20.894Z,10.080536912751677
2024-01-17T05:47:41.239Z,8.120805369127517
2024-01-17T05:52:10.909Z,6.375838926174497
2024-01-17T05:55:30.847Z,6.355704697986577
2024-01-17T05:58:50.829Z,7.973154362416107
2024-01-17T06:02:11.099Z,7.073825503355705
2024-01-17T06:05:31.195Z,8.087248322147651
2024-01-17T06:08:51.350Z,6.879194630872483
2024-01-17T06:14:46.074Z,8.610738255033556
2024-01-17T06:18:06.355Z,10.563758389261745
2024-01-17T06:24:17.313Z,7.1610738255033555
2024-01-17T06:27:36.891Z,6.818791946308725
2024-01-17T06:30:56.851Z,8.724832214765101
2024-01-17T06:34:17.564Z,9.885906040268456
2024-01-17T06:38:29.618Z,8.993288590604028
2024-01-17T06:42:50.234Z,6.610738255033557
2024-01-17T06:46:10.604Z,9.751677852348994
2024-01-17T06:49:36.034Z,6.97986577181208
2024-01-17T06:52:56.659Z,7.932885906040268
2024-01-17T06:56:18.249Z,11.731543624161073
2024-01-17T06:59:38.232Z,7.275167785234899
2024-01-17T07:03:42.792Z,6.469798657718121
2024-01-17T07:07:03.610Z,8.140939597315436
2024-01-17T07:10:24.654Z,5.604026845637584
2024-01-17T07:13:46.963Z,9.134228187919463
2024-01-17T07:17:08.617Z,8.812080536912752
2024-01-17T07:20:31.831Z,8.389261744966444
2024-01-17T07:25:26.092Z,8.825503355704697
2024-01-17T07:28:47.723Z,8.731543624161073
2024-01-17T07:33:51.496Z,8.986577181208053
2024-01-17T07:37:15.457Z,7.738255033557047
2024-01-17T07:40:37.183Z,6.530201342281879
2024-01-17T07:43:59.655Z,6.02013422818792
2024-01-17T07:50:22.650Z,8.375838926174497
2024-01-17T07:58:17.775Z,5.476510067114094
2024-01-17T08:03:22.503Z,10.583892617449665
2024-01-17T08:09:20.617Z,7.469798657718121
2024-01-17T08:12:40.874Z,4.852348993288591
2024-01-17T08:16:01.135Z,8.208053691275168
2024-01-17T08:19:31.449Z,6.966442953020135
2024-01-17T08:22:51.613Z,7.738255033557047
2024-01-17T08:26:12.204Z,6.295302013422819
2024-01-17T08:29:33.091Z,4.268456375838926
2024-01-17T08:32:52.991Z,9.0
2024-01-17T08:39:33.894Z,6.771812080536913
2024-01-17T08:42:53.832Z,8.523489932885907
2024-01-17T08:46:14.217Z,8.080536912751677
2024-01-17T08:49:34.182Z,9.61744966442953
2024-01-17T08:52:54.147Z,6.23489932885906
2024-01-17T08:59:49.043Z,5.76510067114094
2024-01-17T09:09:48.777Z,4.369127516778524
2024-01-17T09:13:10.600Z,6.416107382550336
2024-01-17T09:16:30.653Z,5.8120805369127515
2024-01-17T09:25:11.859Z,8.174496644295303
2024-01-17T09:29:50.693Z,5.8389261744966445
2024-01-17T09:33:11.746Z,7.442953020134228
2024-01-17T09:39:57.857Z,6.134228187919463
2024-01-17T09:44:03.945Z,11.053691275167786
2024-01-17T09:47:23.720Z,7.395973154362416
2024-01-17T09:50:43.698Z,6.080536912751678
2024-01-17T09:54:04.027Z,7.959731543624161
2024-01-17T09:57:23.469Z,5.9865771812080535
2024-01-17T10:00:43.089Z,6.865771812080537
2024-01-17T10:07:22.552Z,9.550335570469798
2024-01-17T10:11:35.777Z,7.436241610738255
2024-01-17T10:14:55.743Z,7.4630872483221475
2024-01-17T10:20:29.388Z,8.59731543624161
2024-01-17T10:23:50.497Z,5.550335570469799
2024-01-17T10:27:10.596Z,7.489932885906041
2024-01-17T10:30:30.484Z,6.496644295302014
2024-01-17T10:33:50.116Z,7.046979865771812
2024-01-17T10:37:11.176Z,5.389261744966443
2024-01-17T10:40:31.116Z,5.557046979865772
2024-01-17T10:43:51.178Z,7.751677852348993
2024-01-17T10:47:11.829Z,7.973154362416107
2024-01-17T10:50:31.652Z,8.322147651006711
2024-01-17T10:57:07.173Z,7.496644295302014
2024-01-17T11:00:26.905Z,8.59731543624161
2024-01-17T11:06:27.696Z,6.926174496644295
2024-01-17T11:09:48.813Z,8.657718120805368
2024-01-17T11:13:44.086Z,8.093959731543624
2024-01-17T11:17:04.876Z,7.7114093959731544
2024-01-17T11:20:26.345Z,9.570469798657719
2024-01-17T11:23:48.884Z,9.691275167785236
2024-01-17T11:27:09.878Z,8.006711409395972
2024-01-17T11:30:30.419Z,7.959731543624161
2024-01-17T11:33:51.438Z,7.966442953020135
2024-01-17T11:37:12.701Z,6.4630872483221475
2024-01-17T11:40:32.971Z,8.268456375838927
2024-01-17T11:43:55.674Z,7.724832214765101
2024-01-17T11:47:16.387Z,8.496644295302014
2024-01-17T11:50:36.787Z,9.268456375838927
2024-01-17T11:56:25.505Z,8.738255033557047
2024-01-17T12:00:54.480Z,9.791946308724832
2024-01-17T12:04:14.723Z,9.456375838926174
2024-01-17T12:07:34.245Z,8.590604026845638
2024-01-17T12:10:54.222Z,7.295302013422819
2024-01-17T12:14:15.437Z,10.020134228187919
2024-01-17T12:17:35.821Z,8.59731543624161
2024-01-17T12:24:06.120Z,7.657718120805369
2024-01-17T12:27:26.394Z,7.973154362416107
2024-01-17T12:30:46.823Z,8.416107382550335
2024-01-17T12:34:08.206Z,8.322147651006711
2024-01-17T12:37:28.376Z,8.10738255033557
2024-01-17T12:44:01.966Z,7.442953020134228
2024-01-17T12:47:22.146Z,6.604026845637584
2024-01-17T12:50:42.293Z,8.120805369127517
2024-01-17T12:54:02.477Z,7.5369127516778525
2024-01-17T12:57:22.436Z,9.906040268456376
2024-01-17T13:00:42.573Z,8.10738255033557
2024-01-17T13:04:03.254Z,8.718120805369127
2024-01-17T13:07:23.398Z,8.87248322147651
2024-01-17T13:10:49.321Z,9.140939597315436
2024-01-17T13:14:09.795Z,10.21476510067114
2024-01-17T13:17:29.249Z,11.04026845637584
2024-01-17T13:24:58.249Z,7.1879194630872485
2024-01-17T13:28:18.439Z,8.355704697986576
2024-01-17T13:32:07.971Z,8.543624161073826
2024-01-17T13:35:28.840Z,8.449664429530202
2024-01-17T13:38:48.955Z,6.1610738255033555
2024-01-17T13:42:09.827Z,9.677852348993289
2024-01-17T13:45:30.317Z,5.966442953020135
2024-01-17T13:48:51.332Z,12.167785234899329
2024-01-17T13:52:13.616Z,10.302013422818792
2024-01-17T13:55:34.341Z,11.187919463087248
2024-01-17T13:58:54.112Z,10.416107382550335
2024-01-17T14:02:14.154Z,7.026845637583893
2024-01-17T14:06:40.194Z,8.315436241610739
2024-01-17T14:10:00.710Z,6.758389261744966
2024-01-17T14:13:20.660Z,7.805369127516778
2024-01-17T14:21:30.011Z,10.395973154362416
2024-01-17T14:24:50.095Z,10.134228187919463
2024-01-17T14:30:11.532Z,8.899328859060402
2024-01-17T14:33:32.101Z,10.838926174496644
2024-01-17T14:36:52.270Z,9.557046979865772
2024-01-17T14:40:12.263Z,8.973154362416107
2024-01-17T14:43:33.420Z,7.966442953020135
2024-01-17T14:46:54.274Z,9.046979865771812
2024-01-17T14:51:40.001Z,7.758389261744966
2024-01-17T14:55:00.302Z,9.463087248322148
2024-01-17T14:58:20.030Z,7.516778523489933
2024-01-17T15:03:48.122Z,8.93288590604027
2024-01-17T15:08:40.033Z,8.838926174496644
2024-01-17T15:12:00.462Z,8.751677852348994
2024-01-17T15:15:32.203Z,9.288590604026846
2024-01-17T15:18:51.762Z,11.355704697986576
2024-01-17T15:22:11.905Z,7.476510067114094
2024-01-17T15:25:31.872Z,6.6644295302013425
2024-01-17T15:28:52.012Z,9.033557046979865
2024-01-17T15:33:02.293Z,11.429530201342281
2024-01-17T15:39:35.827Z,9.536912751677852
2024-01-17T15:44:13.935Z,8.483221476510067
2024-01-17T15:47:34.297Z,11.449664429530202
2024-01-17T15:53:52.996Z,9.201342281879194
2024-01-17T15:57:13.755Z,7.89261744966443
2024-01-17T16:00:33.434Z,10.859060402684564
2024-01-17T16:03:53.337Z,9.046979865771812
2024-01-17T16:07:13.895Z,10.308724832214764
2024-01-17T16:12:27.738Z,12.463087248322148
2024-01-17T16:22:52.152Z,12.04026845637584
2024-01-17T16:27:07.518Z,10.14765100671141
2024-01-17T16:30:27.466Z,10.879194630872483
2024-01-17T16:33:47.583Z,12.684563758389261
2024-01-17T16:38:12.235Z,15.74496644295302
2024-01-17T16:42:12.971Z,14.134228187919463
2024-01-17T16:45:33.248Z,15.281879194630873
2024-01-17T16:48:53.281Z,14.25503355704698
2024-01-17T16:52:14.140Z,15.711409395973154
2024-01-17T16:55:34.364Z,10.604026845637584
2024-01-17T16:58:55.409Z,11.939597315436242
2024-01-17T17:02:15.749Z,9.422818791946309
2024-01-17T17:05:35.974Z,12.832214765100671
2024-01-17T17:08:55.605Z,12.95973154362416
2024-01-17T17:12:16.212Z,11.288590604026846
2024-01-17T17:15:36.192Z,13.033557046979865
2024-01-17T17:18:56.095Z,10.751677852348994
2024-01-17T17:22:20.135Z,12.375838926174497
2024-01-17T17:25:44.442Z,11.993288590604028
2024-01-17T17:29:05.370Z,13.979865771812081
2024-01-17T17:32:25.908Z,11.651006711409396
2024-01-17T17:35:46.889Z,12.087248322147651
2024-01-17T17:39:26.459Z,12.543624161073826
2024-01-17T17:42:47.200Z,12.268456375838927
2024-01-17T17:46:07.406Z,15.416107382550335
2024-01-17T17:49:27.412Z,11.234899328859061
2024-01-17T17:52:46.761Z,16.16778523489933
2024-01-17T17:56:07.564Z,14.570469798657719
2024-01-17T17:59:27.499Z,13.167785234899329
2024-01-17T18:02:47.774Z,13.342281879194632
2024-01-17T18:08:22.398Z,22.93288590604027
2024-01-17T18:11:42.631Z,19.93288590604027
2024-01-17T18:15:03.763Z,17.221476510067113
2024-01-17T18:18:24.176Z,17.120805369127517
2024-01-17T18:21:44.102Z,18.483221476510067
2024-01-17T18:25:06.916Z,15.140939597315436
2024-01-17T18:34:33.234Z,29.93288590604027
2024-01-17T18:37:53.809Z,27.322147651006713
2024-01-17T18:44:04.767Z,12.315436241610739
2024-01-17T18:48:29.973Z,11.59731543624161
2024-01-17T18:51:51.812Z,15.006711409395972
2024-01-17T18:55:13.110Z,10.899328859060402
2024-01-17T18:58:33.401Z,17.053691275167786
2024-01-17T19:01:53.482Z,13.449664429530202
2024-01-17T19:11:45.213Z,16.093959731543624
2024-01-17T19:15:05.905Z,16.885906040268456
2024-01-17T19:18:25.294Z,14.187919463087248
2024-01-17T19:21:45.515Z,20.322147651006713
2024-01-17T19:29:52.076Z,19.825503355704697
2024-01-17T19:35:40.053Z,17.449664429530202
2024-01-17T19:41:08.640Z,17.778523489932887
2024-01-17T19:44:27.890Z,17.731543624161073
2024-01-17T19:50:50.956Z,18.416107382550337
2024-01-17T19:54:11.937Z,16.85234899328859
2024-01-17T19:57:32.640Z,13.919463087248323
2024-01-17T20:00:53.181Z,17.248322147651006
2024-01-17T20:04:14.312Z,17.83221476510067
2024-01-17T20:07:34.539Z,13.36241610738255
2024-01-17T20:11:34.301Z,23.825503355704697
2024-01-17T20:14:54.399Z,26.798657718120804
2024-01-17T20:18:14.992Z,30.2751677852349
2024-01-17T20:21:34.851Z,20.516778523489933
2024-01-17T20:26:29.402Z,19.48993288590604
2024-01-17T20:35:05.368Z,21.463087248322147
2024-01-17T20:38:25.525Z,15.516778523489933
2024-01-17T20:42:22.419Z,18.114093959731544
2024-01-17T20:48:36.113Z,19.63758389261745
2024-01-17T20:51:58.048Z,16.248322147651006
2024-01-17T20:55:19.886Z,16.610738255033556
2024-01-17T20:59:06.203Z,19.355704697986578
2024-01-17T21:02:25.625Z,17.335570469798657
2024-01-17T21:05:45.773Z,17.91946308724832
2024-01-17T21:09:06.675Z,20.469798657718123
2024-01-17T21:12:27.613Z,19.885906040268456
2024-01-17T21:16:50.942Z,15.100671140939598
2024-01-17T21:20:11.724Z,17.76510067114094
2024-01-17T21:23:31.684Z,17.187919463087248
2024-01-17T21:26:51.647Z,19.63758389261745
2024-01-17T21:31:38.723Z,16.161073825503355
2024-01-17T21:35:02.037Z,16.70469798657718
2024-01-17T21:38:23.002Z,15.006711409395972
2024-01-17T21:41:42.862Z,19.23489932885906
2024-01-17T21:45:04.419Z,19.302013422818792
2024-01-17T21:48:24.900Z,16.29530201342282
2024-01-17T21:51:45.448Z,17.100671140939596
2024-01-17T21:55:12.609Z,18.677852348993287
2024-01-17T21:58:34.532Z,14.979865771812081
2024-01-17T22:01:56.045Z,16.63758389261745
2024-01-17T22:05:16.458Z,17.711409395973153
2024-01-17T22:08:48.185Z,16.335570469798657
2024-01-17T22:13:28.944Z,18.476510067114095
2024-01-17T22:21:22.678Z,17.71812080536913
2024-01-17T22:24:43.923Z,20.76510067114094
2024-01-17T22:30:01.300Z,19.38255033557047
2024-01-17T22:33:22.468Z,21.23489932885906
2024-01-17T22:38:56.679Z,18.348993288590606
2024-01-17T22:42:16.968Z,21.006711409395972
2024-01-17T22:45:36.455Z,18.20805369127517
2024-01-17T22:48:57.418Z,21.892617449664428
2024-01-17T22:55:46.724Z,25.758389261744966
2024-01-17T22:59:08.313Z,19.946308724832214
2024-01-17T23:10:30.789Z,24.818791946308725
2024-01-17T23:14:05.584Z,21.516778523489933
2024-01-17T23:18:18.281Z,22.100671140939596
2024-01-17T23:27:11.051Z,21.97986577181208
2024-01-17T23:30:31.820Z,21.302013422818792
2024-01-17T23:33:53.442Z,19.2751677852349
2024-01-17T23:37:17.814Z,21.516778523489933
2024-01-17T23:40:38.618Z,23.78523489932886
2024-01-17T23:44:00.592Z,18.953020134228186
2024-01-17T23:47:38.539Z,21.516778523489933
2024-01-17T23:51:00.012Z,18.79194630872483
2024-01-17T23:54:20.254Z,23.241610738255034
2024-01-17T23:59:05.388Z,21.79194630872483
